Terminal Aerodrome Forecast
Issued by NWS

Home | Current Version | Previous Version | Text Only | Print | Product List | Glossary On
Versions: 1 2 3 4 5 6 7 8 9 10 11 12 13 14 15
000
FTUS41 KCAR 260536
TAFFVE
TAF
KFVE 260536Z 2606/2706 24006KT P6SM BKN060
     FM260800 24006KT P6SM BKN020
     FM261000 24006KT P6SM BKN010
     FM261400 24008KT P6SM VCSH BKN045
     FM262100 32008KT P6SM BKN050=

USA.gov is the U.S. government's official web portal to all federal, state and local government web resources and services.